Time;durP1;ratioP1;P1;durP2;ratioP2;P2;SDS_P1;SDS_P2;PMS_P1;PMS_P2;Temp;Humidity;BMP_temperature;BMP_pressure;BME280_temperature;BME280_humidity;BME280_pressure;Samples;Min_cycle;Max_cycle;Signal;HPM_P1;HPM_P2
2022/07/13 00:02:11;;;;;;;1.10;1.00;;;;;;;22.87;44.95;100818.31;10346048;28;20565;-71
2022/07/13 00:07:13;;;;;;;4.15;2.05;;;;;;;22.80;44.76;100807.34;10347747;28;20057;-72
2022/07/13 00:12:14;;;;;;;2.17;1.30;;;;;;;22.70;44.74;100798.66;10342772;28;20124;-73
2022/07/13 00:17:15;;;;;;;3.53;1.83;;;;;;;22.66;45.14;100810.97;10344353;28;20754;-74
2022/07/13 00:22:17;;;;;;;3.05;1.70;;;;;;;22.58;45.92;100803.78;10346035;28;20643;-73
2022/07/13 00:27:18;;;;;;;2.63;1.65;;;;;;;22.54;45.62;100797.88;10344979;28;20086;-72
2022/07/13 00:32:21;;;;;;;1.55;1.13;;;;;;;22.58;45.86;100796.47;10342739;28;20057;-73
2022/07/13 00:37:22;;;;;;;3.37;1.60;;;;;;;22.58;45.41;100796.47;10342773;28;20136;-73
2022/07/13 00:42:24;;;;;;;5.18;1.80;;;;;;;22.55;45.86;100779.72;10351997;28;20146;-72
2022/07/13 00:47:31;;;;;;;4.47;1.50;;;;;;;22.53;45.63;100771.78;10335592;28;20552;-72
2022/07/13 00:52:35;;;;;;;3.05;1.63;;;;;;;22.50;45.70;100769.41;10351464;28;20079;-73
2022/07/13 00:57:37;;;;;;;5.57;1.63;;;;;;;22.50;45.81;100761.28;10352602;28;20132;-72
2022/07/13 01:02:45;;;;;;;3.15;1.90;;;;;;;22.47;45.80;100758.97;10344657;28;20053;-72
2022/07/13 01:07:48;;;;;;;2.78;2.22;;;;;;;22.37;46.30;100761.16;10349587;28;20045;-73
2022/07/13 01:12:49;;;;;;;4.32;2.17;;;;;;;22.38;46.08;100749.25;10347925;28;20049;-71
2022/07/13 01:17:51;;;;;;;10.75;3.13;;;;;;;22.34;46.21;100745.22;10347948;28;20049;-70
2022/07/13 01:22:53;;;;;;;7.30;3.58;;;;;;;22.30;46.50;100747.47;10352259;28;20120;-71
2022/07/13 01:27:55;;;;;;;2.95;2.22;;;;;;;22.30;47.23;100749.34;10351091;28;20518;-72
2022/07/13 01:32:56;;;;;;;3.25;2.30;;;;;;;22.26;47.00;100743.44;10349932;28;20133;-71
2022/07/13 01:37:58;;;;;;;3.78;1.80;;;;;;;22.21;47.01;100752.13;10350176;28;20429;-71
2022/07/13 01:43:00;;;;;;;5.43;2.53;;;;;;;22.09;47.02;100756.34;10350302;28;20124;-71
2022/07/13 01:48:01;;;;;;;2.88;2.22;;;;;;;22.05;47.66;100771.28;10347372;28;20528;-70
2022/07/13 01:53:02;;;;;;;3.25;2.03;;;;;;;21.81;47.98;100748.88;10350697;28;20830;-70
2022/07/13 01:58:04;;;;;;;2.47;2.17;;;;;;;21.83;48.05;100741.38;10349321;28;20152;-70
2022/07/13 02:03:05;;;;;;;2.85;1.90;;;;;;;21.91;48.10;100759.44;10349908;28;20145;-70
2022/07/13 02:08:07;;;;;;;4.70;2.00;;;;;;;21.89;47.76;100746.06;10345226;28;20123;-71
2022/07/13 02:13:12;;;;;;;2.67;1.85;;;;;;;21.89;47.50;100737.94;10348732;28;20135;-71
2022/07/13 02:18:14;;;;;;;3.55;1.95;;;;;;;21.83;47.58;100741.38;10350756;28;20103;-71
2022/07/13 02:23:15;;;;;;;1.77;1.60;;;;;;;21.77;46.92;100730.44;10359564;28;20043;-71
2022/07/13 02:28:17;;;;;;;3.53;2.35;;;;;;;21.60;47.29;100722.47;10349610;28;20162;-71
2022/07/13 02:33:18;;;;;;;3.65;2.10;;;;;;;21.59;47.91;100722.66;10350387;28;20274;-72
2022/07/13 02:38:19;;;;;;;3.50;1.83;;;;;;;21.44;48.36;100715.34;10344467;28;20125;-71
2022/07/13 02:43:21;;;;;;;5.10;2.00;;;;;;;21.44;48.89;100728.00;10348045;28;20168;-70
2022/07/13 02:48:23;;;;;;;2.45;1.90;;;;;;;21.47;48.61;100731.22;10342231;28;20052;-71
2022/07/13 02:53:24;;;;;;;3.35;1.48;;;;;;;21.42;48.42;100719.25;10344309;28;20133;-71
2022/07/13 02:58:25;;;;;;;4.57;1.98;;;;;;;21.36;48.61;100718.09;10346858;28;20108;-72
2022/07/13 03:03:27;;;;;;;3.65;2.55;;;;;;;21.33;49.06;100708.50;10351544;28;20126;-71
2022/07/13 03:08:28;;;;;;;3.80;2.13;;;;;;;21.29;49.22;100703.66;10347284;28;20136;-70
2022/07/13 03:13:30;;;;;;;4.78;1.80;;;;;;;21.26;49.28;100715.66;10338520;28;20125;-70
2022/07/13 03:18:33;;;;;;;2.60;2.13;;;;;;;21.24;48.94;100714.16;10344431;28;20527;-71
2022/07/13 03:23:36;;;;;;;3.00;1.40;;;;;;;21.25;49.39;100715.84;10347744;28;20073;-71
2022/07/13 03:28:37;;;;;;;2.05;1.70;;;;;;;21.17;49.27;100695.13;10352444;28;20136;-72
2022/07/13 03:33:38;;;;;;;2.25;1.80;;;;;;;21.27;49.78;100711.94;10354866;28;20046;-72
2022/07/13 03:38:40;;;;;;;1.83;1.63;;;;;;;21.32;49.35;100717.63;10343092;28;20216;-70
2022/07/13 03:43:41;;;;;;;3.22;2.13;;;;;;;21.34;49.58;100721.00;10345972;28;20162;-69
2022/07/13 03:48:43;;;;;;;3.75;2.00;;;;;;;21.31;49.39;100715.13;10332036;28;20131;-71
2022/07/13 03:53:44;;;;;;;3.90;1.52;;;;;;;21.24;49.40;100714.16;10347007;28;20045;-72
2022/07/13 03:58:45;;;;;;;2.70;1.80;;;;;;;21.19;49.47;100720.13;10346017;28;20161;-70
2022/07/13 04:03:47;;;;;;;3.30;1.88;;;;;;;21.19;49.59;100717.41;10343887;28;20119;-70
2022/07/13 04:08:48;;;;;;;2.92;2.20;;;;;;;21.23;49.69;100717.88;10341930;28;20109;-70
2022/07/13 04:13:50;;;;;;;3.40;1.92;;;;;;;21.22;49.71;100691.84;10350143;28;20132;-70
2022/07/13 04:18:51;;;;;;;2.40;1.70;;;;;;;21.26;49.60;100712.09;10349604;28;20137;-71
2022/07/13 04:23:52;;;;;;;2.58;1.95;;;;;;;21.25;50.00;100707.72;10354789;28;20097;-71
2022/07/13 04:28:54;;;;;;;3.50;2.22;;;;;;;21.29;49.95;100717.19;10356045;28;20123;-72
2022/07/13 04:33:55;;;;;;;3.80;1.95;;;;;;;21.29;49.96;100720.72;10358472;28;20056;-71
2022/07/13 04:38:57;;;;;;;3.38;1.98;;;;;;;21.29;49.96;100722.59;10356593;28;20496;-71
2022/07/13 04:43:58;;;;;;;6.10;1.80;;;;;;;21.28;49.84;100718.19;10359797;28;20058;-70
2022/07/13 04:48:59;;;;;;;4.03;2.47;;;;;;;21.25;49.79;100715.84;10350970;28;20077;-70
2022/07/13 04:54:01;;;;;;;3.97;2.28;;;;;;;21.24;49.99;100703.34;10360993;28;20532;-70
2022/07/13 04:59:03;;;;;;;3.80;2.70;;;;;;;21.29;49.76;100698.22;10322149;28;20158;-73
2022/07/13 05:04:05;;;;;;;4.75;2.55;;;;;;;21.18;50.50;100694.94;10340184;28;20064;-70
2022/07/13 05:09:06;;;;;;;4.80;2.50;;;;;;;21.28;50.60;100701.94;10340879;28;20069;-71
2022/07/13 05:14:08;;;;;;;4.85;2.15;;;;;;;21.34;50.63;100695.81;10343169;28;20485;-71
2022/07/13 05:19:11;;;;;;;4.47;2.50;;;;;;;21.42;50.70;100701.13;10344148;28;20623;-71
2022/07/13 05:24:13;;;;;;;8.20;2.63;;;;;;;21.50;50.02;100701.09;10336542;28;20056;-71
2022/07/13 05:29:14;;;;;;;13.02;3.08;;;;;;;21.57;49.99;100703.88;10352488;28;20110;-71
2022/07/13 05:34:15;;;;;;;7.10;2.80;;;;;;;21.57;50.21;100703.06;10325667;28;20161;-72
2022/07/13 05:39:17;;;;;;;11.82;2.85;;;;;;;21.58;50.69;100688.50;10327096;28;20046;-71
2022/07/13 05:44:18;;;;;;;7.78;2.67;;;;;;;21.63;50.97;100697.75;10338168;28;20055;-70
2022/07/13 05:49:20;;;;;;;4.80;2.15;;;;;;;21.75;50.86;100708.94;10351814;28;20045;-72
2022/07/13 05:54:21;;;;;;;2.80;1.88;;;;;;;21.80;50.85;100703.84;10354275;28;20138;-70
2022/07/13 05:59:43;;;;;;;8.32;2.00;;;;;;;21.87;50.62;100706.63;10343821;28;20061;-70
2022/07/13 06:04:44;;;;;;;6.70;3.15;;;;;;;22.00;50.42;100722.25;10345347;28;20053;-71
2022/07/13 06:09:46;;;;;;;6.28;2.65;;;;;;;22.10;50.33;100721.94;10346975;28;20058;-69
2022/07/13 06:14:47;;;;;;;3.97;2.28;;;;;;;22.07;50.42;100707.75;10337299;28;20061;-69
2022/07/13 06:19:49;;;;;;;4.05;2.13;;;;;;;22.23;50.08;100703.13;10354731;28;20148;-69
2022/07/13 06:24:51;;;;;;;4.32;1.80;;;;;;;22.44;49.53;100710.50;10348915;28;20594;-69
2022/07/13 06:29:52;;;;;;;4.63;2.30;;;;;;;22.62;49.51;100701.13;10345013;28;20072;-68
2022/07/13 06:34:54;;;;;;;5.97;1.80;;;;;;;22.72;48.96;100701.66;10354038;28;20607;-69
2022/07/13 06:40:01;;;;;;;6.07;1.60;;;;;;;22.74;49.03;100702.28;10337909;28;20142;-69
2022/07/13 06:45:03;;;;;;;4.68;2.05;;;;;;;22.77;49.01;100704.63;10349967;28;20136;-69
2022/07/13 06:50:08;;;;;;;7.18;1.83;;;;;;;22.83;48.80;100705.72;10334702;28;20060;-68
2022/07/13 06:55:10;;;;;;;5.72;3.05;;;;;;;23.00;48.58;100704.44;10344040;28;20818;-68
2022/07/13 07:00:13;;;;;;;5.53;1.60;;;;;;;23.14;48.34;100705.44;10333976;28;20569;-69
2022/07/13 07:05:14;;;;;;;2.45;2.10;;;;;;;23.28;48.21;100701.81;10328216;28;20137;-70
2022/07/13 07:10:16;;;;;;;5.72;1.70;;;;;;;23.43;47.84;100698.13;10332346;28;20049;-69
2022/07/13 07:15:17;;;;;;;4.30;1.35;;;;;;;23.68;47.29;100697.69;10337935;28;20433;-69
2022/07/13 07:20:19;;;;;;;4.30;1.48;;;;;;;23.86;46.35;100694.50;10337548;28;20107;-70
2022/07/13 07:25:20;;;;;;;3.75;1.20;;;;;;;23.88;45.70;100697.84;10344920;28;20125;-71
2022/07/13 07:30:22;;;;;;;5.32;1.30;;;;;;;23.92;45.29;100691.81;10348833;28;20505;-68
2022/07/13 07:35:23;;;;;;;4.55;1.45;;;;;;;23.94;44.54;100706.03;10351400;28;20053;-69
2022/07/13 07:40:25;;;;;;;5.25;1.40;;;;;;;24.08;44.11;100695.22;10349614;28;20216;-69
2022/07/13 07:45:26;;;;;;;3.80;1.27;;;;;;;24.19;43.99;100697.38;10330375;28;20109;-71
2022/07/13 07:50:28;;;;;;;3.55;1.25;;;;;;;24.46;41.94;100692.03;10311452;28;20334;-70
2022/07/13 07:55:29;;;;;;;1.60;0.50;;;;;;;24.62;41.75;100679.94;10326626;28;20136;-71
2022/07/13 08:00:31;;;;;;;3.75;0.90;;;;;;;24.96;41.85;100670.78;10339297;28;20132;-70
2022/07/13 08:05:33;;;;;;;3.25;1.00;;;;;;;25.41;39.88;100689.25;10338713;28;20227;-71
2022/07/13 08:10:34;;;;;;;2.72;0.85;;;;;;;25.45;39.80;100684.25;10343053;28;20541;-71
2022/07/13 08:15:36;;;;;;;3.53;1.35;;;;;;;25.40;39.62;100683.00;10348566;28;20176;-72
2022/07/13 08:20:37;;;;;;;3.70;1.20;;;;;;;25.38;39.00;100671.44;10343449;28;20107;-72
2022/07/13 08:25:38;;;;;;;3.38;0.95;;;;;;;25.44;38.68;100682.56;10344930;28;20053;-72
2022/07/13 08:30:41;;;;;;;2.38;1.42;;;;;;;25.73;38.69;100687.53;10341248;28;20053;-71
2022/07/13 08:41:03;;;;;;;4.55;1.05;;;;;;;26.03;38.33;100667.97;10340909;28;20124;-72
2022/07/13 08:46:07;;;;;;;3.00;0.90;;;;;;;26.20;38.16;100670.22;10341985;28;20172;-70
2022/07/13 08:51:09;;;;;;;3.70;1.35;;;;;;;26.37;38.67;100682.28;10346113;28;20057;-71
2022/07/13 08:56:11;;;;;;;4.85;1.30;;;;;;;26.55;37.73;100678.00;10332642;28;20050;-71
2022/07/13 09:01:13;;;;;;;2.30;1.10;;;;;;;26.78;37.68;100669.28;10340707;28;20511;-71
2022/07/13 09:06:44;;;;;;;2.30;0.68;;;;;;;26.95;37.69;100673.16;10346041;28;20064;-71
2022/07/13 09:11:46;;;;;;;2.15;0.70;;;;;;;26.95;37.47;100667.69;10341811;28;20563;-72
2022/07/13 09:16:51;;;;;;;2.70;0.90;;;;;;;26.84;37.42;100664.81;10326478;28;20677;-73
2022/07/13 09:22:07;;;;;;;1.73;0.88;;;;;;;26.79;38.35;100658.13;10337724;28;20142;-71
2022/07/13 09:27:08;;;;;;;1.25;0.75;;;;;;;26.89;38.19;100652.19;10328363;28;20077;-70
2022/07/13 09:32:11;;;;;;;3.65;1.40;;;;;;;26.91;37.62;100657.44;10354133;28;20067;-71
2022/07/13 09:37:16;;;;;;;2.72;2.17;;;;;;;26.94;38.17;100644.16;10345042;28;20056;-70
2022/07/13 09:42:26;;;;;;;2.70;1.23;;;;;;;27.02;37.11;100644.94;10346823;28;20211;-71
2022/07/13 09:47:27;;;;;;;2.22;0.95;;;;;;;27.04;36.19;100643.66;10346543;28;20443;-70
2022/07/13 09:52:31;;;;;;;2.87;0.57;;;;;;;27.14;36.41;100627.59;10349889;28;20065;-71
2022/07/13 09:57:46;;;;;;;0.93;0.70;;;;;;;27.31;36.60;100644.25;10346663;28;20133;-70
2022/07/13 10:02:59;;;;;;;2.50;0.68;;;;;;;27.26;36.30;100643.25;10346156;28;21745;-71
2022/07/13 10:08:01;;;;;;;3.03;0.80;;;;;;;27.13;36.00;100647.78;10349952;28;20053;-70
2022/07/13 10:13:05;;;;;;;3.60;0.40;;;;;;;27.45;35.33;100642.25;10337165;28;20073;-72
2022/07/13 10:18:12;;;;;;;0.95;0.60;;;;;;;27.63;35.17;100635.13;10348109;28;20056;-72
2022/07/13 10:23:30;;;;;;;2.25;0.65;;;;;;;27.69;35.46;100623.28;10340963;28;20328;-71
2022/07/13 10:29:02;;;;;;;1.75;0.57;;;;;;;27.83;34.98;100629.41;10337562;28;20053;-70
2022/07/13 10:34:05;;;;;;;1.38;0.57;;;;;;;28.09;35.71;100635.66;10338997;28;20146;-71
2022/07/13 10:39:11;;;;;;;0.77;0.50;;;;;;;28.35;35.38;100638.03;10341651;28;20183;-72
2022/07/13 10:44:32;;;;;;;2.10;0.70;;;;;;;28.35;33.75;100637.22;10344561;28;20053;-72
2022/07/13 10:49:46;;;;;;;3.30;0.70;;;;;;;28.25;34.63;100620.50;10339964;28;20566;-71
2022/07/13 10:55:03;;;;;;;4.05;0.70;;;;;;;28.27;34.42;100618.34;10348358;28;20801;-70
2022/07/13 11:00:22;;;;;;;3.72;1.15;;;;;;;28.47;33.82;100623.56;10345232;28;20131;-71
2022/07/13 11:05:34;;;;;;;2.15;0.60;;;;;;;28.55;32.90;100613.13;10341483;28;20053;-73
2022/07/13 11:10:36;;;;;;;1.70;0.40;;;;;;;28.53;33.28;100601.53;10343016;28;20084;-73
2022/07/13 11:15:54;;;;;;;0.95;0.50;;;;;;;28.67;33.29;100601.38;10337402;28;20053;-70
2022/07/13 11:20:59;;;;;;;1.10;0.60;;;;;;;28.70;32.46;100595.41;10344404;28;20062;-71
2022/07/13 11:26:09;;;;;;;2.78;0.45;;;;;;;29.02;31.28;100592.34;10352674;28;20061;-71
2022/07/13 11:31:12;;;;;;;2.50;0.30;;;;;;;29.10;31.46;100590.09;10347386;28;23223;-71
2022/07/13 11:36:18;;;;;;;2.47;0.43;;;;;;;29.55;30.48;100585.91;10346830;28;20079;-73
2022/07/13 11:41:33;;;;;;;0.75;0.30;;;;;;;30.09;29.47;100574.66;10355283;28;20199;-72
2022/07/13 11:46:34;;;;;;;1.73;0.60;;;;;;;30.16;28.94;100566.25;10353803;28;20389;-72
2022/07/13 11:51:36;;;;;;;1.50;0.40;;;;;;;30.45;29.12;100560.78;10338804;28;20167;-73
2022/07/13 11:56:55;;;;;;;3.72;0.20;;;;;;;30.84;27.85;100550.69;10344381;28;20729;-73
2022/07/13 12:01:59;;;;;;;1.27;0.40;;;;;;;30.98;28.97;100536.59;10344584;28;20135;-72
2022/07/13 12:07:21;;;;;;;1.58;0.43;;;;;;;31.11;27.42;100532.72;10341504;28;20095;-73
2022/07/13 12:12:26;;;;;;;;;;;;;;;31.34;27.89;100532.47;10341067;28;20132;-73
2022/07/13 12:17:31;;;;;;;3.70;0.50;;;;;;;31.50;26.23;100530.75;10342129;28;20016;-74
2022/07/13 12:22:38;;;;;;;2.65;0.40;;;;;;;31.59;26.54;100525.66;10344112;28;20421;-74
2022/07/13 12:27:39;;;;;;;2.13;0.40;;;;;;;31.70;26.07;100499.09;10329472;28;20619;-74
2022/07/13 12:32:57;;;;;;;2.17;0.32;;;;;;;32.13;25.24;100489.09;10349139;28;20163;-76
2022/07/13 12:38:01;;;;;;;1.02;0.30;;;;;;;32.36;25.13;100479.63;10354951;28;20057;-73
2022/07/13 12:43:03;;;;;;;6.53;0.65;;;;;;;32.15;24.27;100483.31;10349848;28;20207;-70
2022/07/13 12:48:13;;;;;;;1.45;0.22;;;;;;;31.90;24.91;100480.03;10355329;28;20231;-70
2022/07/13 12:53:15;;;;;;;2.60;0.38;;;;;;;31.92;22.98;100479.78;10344586;28;20136;-70
2022/07/13 12:58:16;;;;;;;0.80;0.20;;;;;;;32.19;23.44;100468.75;10345483;28;20049;-70
2022/07/13 13:03:18;;;;;;;0.95;0.25;;;;;;;32.40;23.27;100458.72;10351844;28;21737;-69
2022/07/13 13:08:19;;;;;;;;;;;;;;;32.55;23.63;100447.00;10347971;28;20189;-71
2022/07/13 13:13:21;;;;;;;3.07;0.20;;;;;;;32.58;21.99;100445.63;10347954;28;19929;-70
2022/07/13 13:18:22;;;;;;;;;;;;;;;33.15;20.22;100429.38;10337686;28;20312;-70
2022/07/13 13:23:23;;;;;;;4.47;0.35;;;;;;;33.47;20.98;100430.06;10337231;28;20888;-70
2022/07/13 13:28:25;;;;;;;1.50;0.20;;;;;;;33.68;21.31;100424.59;10326446;28;20059;-70
2022/07/13 13:33:26;;;;;;;1.63;0.68;;;;;;;33.55;20.49;100427.88;10343816;28;20164;-70
2022/07/13 13:38:28;;;;;;;;;;;;;;;33.49;20.94;100402.22;10341989;28;20140;-70
2022/07/13 13:43:31;;;;;;;1.70;0.47;;;;;;;33.65;21.34;100400.31;10341372;28;20133;-71
2022/07/13 13:48:32;;;;;;;4.10;0.30;;;;;;;33.73;20.74;100379.66;10348767;28;20057;-71
2022/07/13 13:53:34;;;;;;;0.93;0.13;;;;;;;33.67;21.00;100380.72;10348029;28;20124;-69
2022/07/13 13:58:35;;;;;;;2.50;0.40;;;;;;;33.44;20.70;100383.72;10346405;28;20114;-69
2022/07/13 14:03:38;;;;;;;1.38;0.20;;;;;;;33.36;20.93;100381.50;10333072;28;20132;-69
2022/07/13 14:08:44;;;;;;;0.95;0.22;;;;;;;33.25;21.99;100363.28;10323758;28;20155;-69
2022/07/13 14:13:46;;;;;;;1.80;0.30;;;;;;;33.39;20.95;100375.44;10340829;28;20277;-70
2022/07/13 14:18:48;;;;;;;1.85;0.20;;;;;;;33.38;20.75;100367.44;10348776;28;20164;-69
2022/07/13 14:23:50;;;;;;;1.58;0.47;;;;;;;33.04;21.23;100367.88;10343326;28;20073;-69
2022/07/13 14:29:12;;;;;;;3.03;0.28;;;;;;;32.89;21.56;100365.91;10344228;28;20049;-69
2022/07/13 14:34:13;;;;;;;;;;;;;;;32.64;21.12;100353.66;10344644;28;20679;-70
2022/07/13 14:39:15;;;;;;;1.67;0.20;;;;;;;32.37;21.66;100337.25;10330721;28;19964;-69
2022/07/13 14:44:16;;;;;;;2.05;0.20;;;;;;;32.34;21.57;100346.03;10337027;28;20204;-69
2022/07/13 14:49:19;;;;;;;1.08;0.10;;;;;;;32.28;21.46;100339.69;10324696;28;20046;-68
2022/07/13 14:54:38;;;;;;;3.72;0.30;;;;;;;32.29;22.21;100322.03;10341672;28;20062;-68
2022/07/13 14:59:40;;;;;;;1.15;0.20;;;;;;;32.34;20.71;100322.09;10319715;28;20104;-69
2022/07/13 15:04:41;;;;;;;1.13;0.30;;;;;;;32.37;21.69;100321.56;10343543;28;20053;-70
2022/07/13 15:09:50;;;;;;;1.60;0.30;;;;;;;32.34;21.40;100310.22;10338495;28;20057;-72
2022/07/13 15:15:04;;;;;;;1.80;0.38;;;;;;;32.40;21.36;100299.00;10340282;28;20152;-69
2022/07/13 15:20:26;;;;;;;1.52;0.45;;;;;;;32.32;21.04;100298.66;10339273;28;20045;-70
2022/07/13 15:25:27;;;;;;;2.88;0.43;;;;;;;32.11;21.45;100295.78;10344451;28;20092;-69
2022/07/13 15:30:29;;;;;;;1.83;0.60;;;;;;;32.00;21.93;100283.84;10344429;28;20163;-70
2022/07/13 15:35:31;;;;;;;2.70;0.45;;;;;;;31.93;22.62;100283.25;10330325;28;20051;-70
2022/07/13 15:45:54;;;;;;;1.87;1.23;;;;;;;31.75;22.57;100269.94;10344481;28;20122;-69
2022/07/13 15:50:56;;;;;;;0.60;0.32;;;;;;;31.68;22.02;100265.50;10347123;28;20081;-67
2022/07/13 15:55:58;;;;;;;0.70;0.40;;;;;;;31.67;21.47;100252.81;10350514;28;20122;-68
2022/07/13 16:00:59;;;;;;;2.95;0.47;;;;;;;31.66;21.30;100253.94;10340131;28;20114;-70
2022/07/13 16:06:01;;;;;;;2.83;0.40;;;;;;;31.55;21.29;100246.69;10343682;28;20061;-69
2022/07/13 16:11:03;;;;;;;4.00;0.40;;;;;;;31.50;22.22;100246.63;10353096;28;20190;-68
2022/07/13 16:16:06;;;;;;;;;;;;;;;31.50;21.44;100241.13;10357837;28;20063;-68
2022/07/13 16:21:09;;;;;;;4.03;0.30;;;;;;;31.46;22.27;100237.22;10347287;28;19927;-68
2022/07/13 16:26:10;;;;;;;1.23;0.35;;;;;;;31.45;22.08;100228.16;10353802;28;20045;-68
2022/07/13 16:31:12;;;;;;;1.55;0.30;;;;;;;31.49;22.23;100228.47;10342426;28;22401;-71
2022/07/13 16:36:13;;;;;;;1.38;0.20;;;;;;;31.58;21.77;100221.41;10346923;28;20049;-71
2022/07/13 16:41:14;;;;;;;3.40;0.30;;;;;;;31.57;21.74;100214.22;10336313;28;20537;-71
2022/07/13 16:46:16;;;;;;;0.70;0.20;;;;;;;31.51;21.07;100201.50;10354077;28;20378;-69
2022/07/13 16:51:18;;;;;;;0.55;0.30;;;;;;;31.54;20.71;100212.81;10350248;28;20116;-68
2022/07/13 16:56:19;;;;;;;1.45;0.30;;;;;;;31.58;20.63;100204.91;10339998;28;20122;-69
2022/07/13 17:01:20;;;;;;;0.70;0.40;;;;;;;31.51;21.41;100205.09;10346299;28;20050;-67
2022/07/13 17:06:22;;;;;;;0.65;0.22;;;;;;;31.40;21.78;100197.03;10337087;28;20053;-69
2022/07/13 17:11:24;;;;;;;;;;;;;;;31.41;21.89;100215.19;10343783;28;20145;-69
2022/07/13 17:16:25;;;;;;;3.83;0.53;;;;;;;31.38;22.44;100211.88;10354667;28;20000;-69
2022/07/13 17:21:29;;;;;;;1.48;0.55;;;;;;;31.34;22.72;100199.72;10368727;28;20202;-71
2022/07/13 17:26:30;;;;;;;0.70;0.20;;;;;;;31.29;23.12;100201.63;10379244;28;20500;-72
2022/07/13 17:31:32;;;;;;;3.22;0.43;;;;;;;31.18;23.11;100200.69;10353814;28;20744;-70
2022/07/13 17:36:34;;;;;;;3.15;0.63;;;;;;;31.11;23.39;100202.88;10347487;28;21008;-70
2022/07/13 17:41:35;;;;;;;2.30;0.55;;;;;;;30.99;23.56;100192.84;10352416;28;20136;-71
2022/07/13 17:46:37;;;;;;;3.70;0.67;;;;;;;30.94;23.75;100194.69;10351908;28;20512;-70
2022/07/13 17:51:53;;;;;;;1.10;0.50;;;;;;;30.86;23.72;100185.00;10341418;28;20053;-69
2022/07/13 17:56:54;;;;;;;2.07;0.30;;;;;;;30.80;23.46;100181.38;10325819;28;20154;-70
2022/07/13 18:01:56;;;;;;;1.67;1.27;;;;;;;30.84;23.67;100184.44;10346940;28;20079;-70
2022/07/13 18:06:58;;;;;;;1.08;0.50;;;;;;;30.85;23.86;100192.44;10342481;28;20129;-70
2022/07/13 18:11:59;;;;;;;3.83;0.60;;;;;;;30.82;24.54;100205.84;10348449;28;21509;-70
2022/07/13 18:17:00;;;;;;;2.75;0.90;;;;;;;30.84;26.42;100220.97;10351848;28;20065;-70
2022/07/13 18:22:02;;;;;;;5.97;1.23;;;;;;;30.84;28.24;100222.91;10342274;28;20060;-70
2022/07/13 18:27:03;;;;;;;6.40;1.50;;;;;;;30.70;28.55;100227.16;10342785;28;20797;-70
2022/07/13 18:32:25;;;;;;;2.23;1.10;;;;;;;30.53;29.09;100240.97;10342435;28;20299;-70
2022/07/13 18:37:27;;;;;;;2.90;0.90;;;;;;;30.36;29.71;100239.09;10344925;28;20187;-69
2022/07/13 18:42:28;;;;;;;3.67;1.20;;;;;;;30.27;30.07;100246.94;10351029;28;20050;-69
2022/07/13 18:47:29;;;;;;;5.57;1.63;;;;;;;30.09;30.67;100244.50;10350911;28;20449;-70
2022/07/13 18:52:31;;;;;;;4.00;1.57;;;;;;;29.94;31.09;100248.69;10344422;28;20791;-70
2022/07/13 18:57:33;;;;;;;2.95;1.40;;;;;;;29.83;31.42;100260.59;10343384;28;20158;-71
2022/07/13 19:02:35;;;;;;;3.78;1.80;;;;;;;29.70;31.47;100266.41;10344008;28;21570;-71
2022/07/13 19:07:37;;;;;;;3.03;1.48;;;;;;;29.58;31.87;100272.78;10345651;28;20921;-70
2022/07/13 19:12:39;;;;;;;3.47;1.70;;;;;;;29.50;31.73;100270.47;10339539;28;20163;-69
2022/07/13 19:17:41;;;;;;;4.88;1.30;;;;;;;29.39;32.34;100274.13;10340291;28;20053;-70
2022/07/13 19:22:43;;;;;;;3.72;1.30;;;;;;;29.28;32.69;100273.13;10345212;28;20071;-72
2022/07/13 19:27:50;;;;;;;6.47;2.53;;;;;;;29.16;33.05;100297.81;10335737;28;20177;-69
2022/07/13 19:32:51;;;;;;;2.97;1.35;;;;;;;29.06;33.55;100286.66;10334277;28;20124;-70
2022/07/13 19:37:53;;;;;;;3.13;1.50;;;;;;;28.97;33.76;100299.09;10338223;28;20057;-71
2022/07/13 19:43:12;;;;;;;4.10;1.90;;;;;;;28.88;34.29;100312.34;10334739;28;20374;-71
2022/07/13 19:48:17;;;;;;;4.03;2.17;;;;;;;28.81;34.66;100319.84;10334205;28;23570;-70
2022/07/13 19:53:18;;;;;;;3.17;2.00;;;;;;;28.74;34.75;100328.22;10352395;28;20136;-71
2022/07/13 19:58:20;;;;;;;5.63;1.65;;;;;;;28.64;34.99;100330.75;10333674;28;20053;-72
2022/07/13 20:03:21;;;;;;;8.15;1.90;;;;;;;28.56;35.47;100338.22;10338649;28;20160;-71
2022/07/13 20:08:23;;;;;;;2.33;1.40;;;;;;;28.41;35.70;100339.81;10328332;28;20421;-72
2022/07/13 20:13:37;;;;;;;3.95;1.50;;;;;;;28.25;35.77;100346.84;10331880;28;20615;-72
2022/07/13 20:18:39;;;;;;;2.45;1.33;;;;;;;28.25;36.02;100363.25;10308935;28;20126;-71
2022/07/13 20:23:41;;;;;;;3.97;1.63;;;;;;;28.16;36.34;100360.03;10342834;28;20591;-70
2022/07/13 20:28:43;;;;;;;1.65;1.05;;;;;;;28.04;37.34;100354.56;10340558;28;20779;-71
2022/07/13 20:33:51;;;;;;;2.85;1.08;;;;;;;27.92;37.29;100359.16;10346253;28;20256;-71
2022/07/13 20:38:53;;;;;;;3.97;1.58;;;;;;;27.83;37.86;100351.31;10340134;28;20073;-72
2022/07/13 20:43:54;;;;;;;5.80;1.67;;;;;;;27.73;38.54;100361.13;10341604;28;20046;-70
2022/07/13 20:48:56;;;;;;;2.00;1.20;;;;;;;27.63;38.34;100372.66;10317377;28;20228;-70
2022/07/13 20:54:00;;;;;;;2.95;1.75;;;;;;;27.58;38.47;100359.69;10320315;28;22232;-71
2022/07/13 20:59:06;;;;;;;2.33;1.40;;;;;;;27.63;38.31;100373.47;10333155;28;20053;-71
2022/07/13 21:04:08;;;;;;;2.75;1.67;;;;;;;27.57;38.50;100377.16;10326419;28;20069;-71
2022/07/13 21:09:10;;;;;;;3.70;1.17;;;;;;;27.54;38.78;100380.34;10340391;28;20054;-70
2022/07/13 21:14:11;;;;;;;3.00;1.63;;;;;;;27.45;38.72;100382.59;10332749;28;20169;-71
2022/07/13 21:19:13;;;;;;;2.85;1.50;;;;;;;27.37;40.01;100388.38;10351671;28;20053;-70
2022/07/13 21:24:14;;;;;;;1.98;1.30;;;;;;;27.29;39.29;100388.66;10353153;28;20137;-69
2022/07/13 21:29:16;;;;;;;3.03;1.20;;;;;;;27.23;38.39;100401.34;10354657;28;20140;-70
2022/07/13 21:34:17;;;;;;;4.78;1.50;;;;;;;27.16;39.17;100395.97;10355390;28;20057;-70
2022/07/13 21:39:20;;;;;;;2.65;2.00;;;;;;;27.09;39.37;100399.84;10341624;28;20583;-70
2022/07/13 21:44:21;;;;;;;2.75;2.00;;;;;;;26.95;39.49;100385.53;10354699;28;20049;-70
2022/07/13 21:49:22;;;;;;;2.50;1.77;;;;;;;26.93;39.76;100393.09;10343405;28;20104;-70
2022/07/13 21:54:24;;;;;;;5.00;2.00;;;;;;;26.86;40.63;100401.41;10351110;28;20418;-70
2022/07/13 21:59:25;;;;;;;3.35;2.60;;;;;;;26.78;40.48;100408.00;10352682;28;20500;-70
2022/07/13 22:04:27;;;;;;;4.25;2.22;;;;;;;26.73;40.24;100396.06;10352647;28;20476;-70
2022/07/13 22:09:28;;;;;;;2.20;1.70;;;;;;;26.65;41.30;100405.38;10348623;28;20070;-70
2022/07/13 22:15:07;;;;;;;2.95;1.73;;;;;;;26.56;41.75;100402.09;10349946;28;20969;-70
2022/07/13 22:20:47;;;;;;;3.05;2.05;;;;;;;26.49;41.84;100390.41;10348632;28;20136;-69
2022/07/13 22:26:25;;;;;;;4.10;2.17;;;;;;;26.42;42.04;100398.69;10354777;28;20136;-70
2022/07/13 22:32:04;;;;;;;3.70;1.80;;;;;;;26.29;41.55;100391.44;10345280;28;20128;-70
2022/07/13 22:37:43;;;;;;;3.17;1.58;;;;;;;26.22;41.85;100401.56;10348893;28;20148;-71
2022/07/13 22:43:22;;;;;;;2.85;1.42;;;;;;;26.18;41.65;100399.53;10346230;28;20051;-69
2022/07/13 22:49:01;;;;;;;3.42;1.42;;;;;;;26.19;41.11;100402.03;10345323;28;20136;-71
2022/07/13 22:54:40;;;;;;;2.05;1.80;;;;;;;26.18;41.00;100388.59;10351985;28;20147;-69
2022/07/13 23:00:19;;;;;;;2.75;1.58;;;;;;;26.17;41.55;100392.41;10345532;28;20156;-70
2022/07/13 23:05:59;;;;;;;2.20;1.70;;;;;;;26.11;41.14;100386.78;10349675;28;20049;-71
2022/07/13 23:11:38;;;;;;;2.97;1.50;;;;;;;26.06;41.41;100389.34;10347481;28;20611;-70
2022/07/13 23:17:17;;;;;;;2.20;1.95;;;;;;;25.99;41.12;100385.84;10345884;28;20053;-70
2022/07/13 23:22:56;;;;;;;1.88;1.30;;;;;;;25.94;41.46;100386.47;10343207;28;20050;-70
2022/07/13 23:28:07;;;;;;;1.90;1.25;;;;;;;25.90;41.31;100381.69;10346699;28;20214;-70
2022/07/13 23:33:10;;;;;;;8.55;1.60;;;;;;;25.89;41.18;100369.09;10346599;28;20089;-71
2022/07/13 23:38:12;;;;;;;2.33;1.70;;;;;;;25.89;41.49;100374.56;10345905;28;20207;-71